Osceola, WI (54020)

7:29 PM CDT on May 22, 2015 (GMT -0500)
Hilltop Acres | | Change Station
CLOSE
Current Station
Personal Weather Station
Location: Osceola, WI
Elevation: 900 ft
Nearby Weather Stations

Elev 900 ft 45.34 °N, 92.67 °W | Updated 3 minutes ago

Haze
Haze
70.1 °F
Feels Like 76 °F
N
1.0
Wind Variable Wind from East
Gusts 3.0 mph

Today
High -- | Low -- °F
--% Chance of Precip.
Yesterday
High -- | Low -- °F
Precip. -- in
5:33 AM 8:41 PM
Waxing Crescent, 25% visible
Pressure 30.21 in
Visibility 0.8 miles
Clouds
Heat Index 76 °F
Dew Point 36 °F
Humidity 29%
Rainfall 0.00 in
Snow Depth Not available.
UV Not available.
Pollen 7.30 out of 12
Air Quality Not available.
Flu Activity Sporadic
METAR KOEO 230015Z AUTO 00000KT 3/4SM HZ VV005 21/02 A3021 RMK AO2 VIS 1/4V5 T02130020

More Conditions Fewer Conditions

Pressure 30.21 in
Visibility 0.8 miles
Clouds
Heat Index 76 °F
Dew Point 36 °F
Humidity 29%
Rainfall 0.00 in
Snow Depth Not available.
UV Not available.
Pollen 7.30 out of 12
Air Quality Not available.
Flu Activity Sporadic
METAR KOEO 230015Z AUTO 00000KT 3/4SM HZ VV005 21/02 A3021 RMK AO2 VIS 1/4V5 T02130020

More Conditions Fewer Conditions

10-Day Weather Forecast

Almanac

Astronomy

May. 22, 2015 Rise Set
Actual Time
Civil Twilight
Nautical Twilight
Astronomical Twilight
Moon
Length of Visible Light
Length of Day
Tomorrow will be .
, % of the Moon is Illuminated

Today's Extremes

State Highs State Lows

Community

WunderPhotos

Upload Photos

1,823,342 photos uploaded!

WunderBlogs® & News

Nearby

Air Quality

  Air Quality AQ Index Pollutant
Not available.

Snow Depth

Station Depth Elevation

Earthquake Activity

City Distance Mag. Time & Date
Minimum magnitude displayed is 2.5.

Coastal Water Temperatures

Place Temperature

Stations

Nearby Weather Stations

Station Location Temp. Windchill Dew Point Humidity Wind Precip. Elev Updated Type